createdAt,value
2023-02-17T00:01:27.207Z,4.00
2023-02-17T00:05:36.073Z,4.10
2023-02-17T00:09:40.920Z,4.20
2023-02-17T00:13:46.863Z,4.20
2023-02-17T00:17:50.172Z,4.30
2023-02-17T00:22:20.589Z,4.40
2023-02-17T00:26:25.300Z,4.50
2023-02-17T00:30:28.960Z,4.50
2023-02-17T00:34:32.427Z,4.50
2023-02-17T00:38:41.550Z,4.50
2023-02-17T00:42:46.197Z,4.50
2023-02-17T00:46:50.001Z,4.60
2023-02-17T00:51:30.648Z,4.60
2023-02-17T00:55:34.224Z,4.60
2023-02-17T00:59:40.162Z,4.70
2023-02-17T01:03:45.587Z,4.70
2023-02-17T01:07:51.008Z,4.80
2023-02-17T01:11:56.503Z,4.90
2023-02-17T01:16:02.693Z,5.00
2023-02-17T01:20:07.889Z,5.10
2023-02-17T01:24:11.272Z,5.20
2023-02-17T01:29:06.362Z,5.30
2023-02-17T01:33:11.380Z,5.30
2023-02-17T01:38:05.382Z,5.40
2023-02-17T01:42:17.063Z,5.50
2023-02-17T01:46:20.346Z,5.50
2023-02-17T01:50:49.976Z,5.60
2023-02-17T01:55:08.193Z,5.60
2023-02-17T02:03:54.901Z,5.50
2023-02-17T02:08:00.065Z,5.50
2023-02-17T02:12:29.025Z,5.60
2023-02-17T02:16:53.386Z,5.60
2023-02-17T02:21:35.927Z,5.70
2023-02-17T02:26:13.904Z,5.70
2023-02-17T02:30:47.835Z,5.70
2023-02-17T02:34:59.506Z,5.60
2023-02-17T02:39:06.709Z,5.60
2023-02-17T02:43:49.011Z,5.60
2023-02-17T02:47:54.243Z,5.60
2023-02-17T02:52:21.858Z,5.60
2023-02-17T02:56:48.626Z,5.70
2023-02-17T03:01:14.060Z,5.70
2023-02-17T03:05:25.567Z,5.70
2023-02-17T03:09:31.284Z,5.80
2023-02-17T03:14:33.358Z,5.70
2023-02-17T03:18:37.980Z,5.70
2023-02-17T03:22:46.808Z,5.70
2023-02-17T03:26:52.531Z,5.70
2023-02-17T03:36:32.200Z,5.80
2023-02-17T03:40:35.672Z,5.80
2023-02-17T03:44:40.399Z,5.80
2023-02-17T03:48:47.968Z,5.80
2023-02-17T03:52:51.288Z,5.70
2023-02-17T03:56:55.818Z,5.70
2023-02-17T04:01:00.671Z,5.60
2023-02-17T04:05:04.168Z,5.60
2023-02-17T04:09:14.580Z,5.50
2023-02-17T04:13:17.806Z,5.50
2023-02-17T04:23:19.477Z,5.40
2023-02-17T04:27:22.828Z,5.30
2023-02-17T04:32:04.535Z,5.30
2023-02-17T04:36:08.216Z,5.30
2023-02-17T04:40:31.953Z,5.20
2023-02-17T04:44:36.517Z,5.10
2023-02-17T04:48:46.568Z,5.20
2023-02-17T04:52:50.110Z,5.10
2023-02-17T04:57:07.199Z,5.20
2023-02-17T05:01:10.601Z,5.20
2023-02-17T05:05:15.572Z,5.10
2023-02-17T05:09:20.738Z,5.10
2023-02-17T05:13:25.740Z,5.10
2023-02-17T05:18:21.272Z,5.20
2023-02-17T05:22:24.636Z,5.20
2023-02-17T05:26:28.098Z,5.20
2023-02-17T05:30:32.951Z,5.20
2023-02-17T05:35:39.085Z,5.20
2023-02-17T05:39:42.934Z,5.10
2023-02-17T05:43:52.238Z,5.20
2023-02-17T05:47:57.556Z,5.20
2023-02-17T05:52:26.613Z,5.10
2023-02-17T05:56:29.937Z,5.10
2023-02-17T06:06:13.341Z,5.10
2023-02-17T06:10:16.781Z,5.10
2023-02-17T06:14:24.070Z,5.10
2023-02-17T06:18:27.388Z,5.10
2023-02-17T06:22:53.317Z,5.10
2023-02-17T06:26:58.003Z,5.10
2023-02-17T06:31:17.815Z,5.20
2023-02-17T06:35:21.088Z,5.40
2023-02-17T06:39:24.855Z,5.50
2023-02-17T06:43:29.848Z,5.50
2023-02-17T06:47:39.336Z,5.60
2023-02-17T06:51:42.821Z,5.60
2023-02-17T06:56:05.937Z,5.70
2023-02-17T07:00:35.892Z,5.70
2023-02-17T07:04:39.266Z,5.70
2023-02-17T07:08:42.901Z,5.80
2023-02-17T07:13:15.079Z,5.80
2023-02-17T07:17:19.785Z,5.80
2023-02-17T07:21:23.311Z,5.90
2023-02-17T07:25:26.622Z,5.90
2023-02-17T07:30:10.388Z,6.00
2023-02-17T07:34:15.678Z,6.10
2023-02-17T07:38:19.542Z,6.20
2023-02-17T07:42:22.729Z,6.30
2023-02-17T07:52:13.733Z,6.40
2023-02-17T07:56:19.267Z,6.40
2023-02-17T08:00:23.072Z,6.40
2023-02-17T08:04:27.970Z,6.40
2023-02-17T08:08:54.081Z,6.50
2023-02-17T08:13:19.113Z,6.50
2023-02-17T08:17:23.810Z,6.60
2023-02-17T08:21:28.579Z,6.70
2023-02-17T08:25:35.144Z,6.70
2023-02-17T08:29:38.520Z,6.70
2023-02-17T08:33:45.164Z,6.70
2023-02-17T08:37:48.661Z,6.70
2023-02-17T08:41:53.608Z,6.70
2023-02-17T08:46:03.136Z,6.80
2023-02-17T08:50:10.474Z,6.80
2023-02-17T08:54:14.923Z,6.80
2023-02-17T08:58:44.535Z,6.90
2023-02-17T09:02:48.225Z,6.90
2023-02-17T09:07:45.453Z,6.90
2023-02-17T09:11:48.888Z,6.90
2023-02-17T09:15:54.793Z,6.90
2023-02-17T09:19:58.448Z,6.90
2023-02-17T09:24:01.976Z,6.90
2023-02-17T09:28:07.647Z,7.00
2023-02-17T09:32:12.684Z,7.10
2023-02-17T09:37:21.469Z,7.20
2023-02-17T09:41:27.808Z,7.20
2023-02-17T09:45:36.115Z,7.30
2023-02-17T09:54:08.265Z,7.50
2023-02-17T09:58:28.066Z,7.70
2023-02-17T10:02:58.791Z,7.90
2023-02-17T10:11:54.790Z,8.10
2023-02-17T10:16:14.117Z,8.40
2023-02-17T10:20:21.851Z,8.60
2023-02-17T10:24:27.263Z,8.70
2023-02-17T10:28:50.780Z,8.90
2023-02-17T10:33:02.187Z,9.00
2023-02-17T10:37:20.506Z,9.00
2023-02-17T10:41:44.465Z,8.90
2023-02-17T10:45:49.763Z,8.80
2023-02-17T10:49:55.007Z,8.60
2023-02-17T10:54:13.700Z,8.50
2023-02-17T10:58:32.659Z,8.50
2023-02-17T11:07:23.875Z,8.30
2023-02-17T11:11:30.770Z,8.20
2023-02-17T11:15:55.306Z,8.30
2023-02-17T11:20:11.866Z,8.30
2023-02-17T11:24:15.632Z,8.30
2023-02-17T11:32:44.006Z,8.30
2023-02-17T11:36:47.558Z,8.30
2023-02-17T11:41:17.596Z,8.50
2023-02-17T11:45:45.576Z,8.60
2023-02-17T11:50:35.366Z,8.50
2023-02-17T11:54:56.703Z,8.40
2023-02-17T11:59:22.577Z,8.20
2023-02-17T12:04:06.549Z,8.10
2023-02-17T12:08:47.555Z,8.10
2023-02-17T12:13:25.825Z,8.10
2023-02-17T12:17:44.379Z,8.10
2023-02-17T12:22:22.053Z,8.20
2023-02-17T12:26:34.845Z,8.30
2023-02-17T12:30:48.913Z,8.30
2023-02-17T12:35:01.171Z,8.30
2023-02-17T12:39:13.326Z,8.40
2023-02-17T12:43:38.163Z,8.40
2023-02-17T12:47:52.102Z,8.50
2023-02-17T12:52:00.430Z,8.60
2023-02-17T12:56:51.242Z,8.60
2023-02-17T13:01:00.136Z,8.60
2023-02-17T13:05:19.333Z,8.60
2023-02-17T13:09:45.571Z,8.60
2023-02-17T13:13:49.121Z,8.50
2023-02-17T13:18:13.171Z,8.50
2023-02-17T13:26:55.945Z,8.40
2023-02-17T13:31:11.422Z,8.40
2023-02-17T13:35:33.260Z,8.50
2023-02-17T13:39:39.175Z,8.60
2023-02-17T13:43:44.594Z,8.80
2023-02-17T13:48:13.444Z,8.90
2023-02-17T13:52:19.839Z,9.00
2023-02-17T13:56:28.245Z,9.00
2023-02-17T14:00:59.704Z,9.10
2023-02-17T14:05:18.663Z,9.10
2023-02-17T14:09:24.768Z,9.10
2023-02-17T14:13:28.262Z,9.10
2023-02-17T14:17:34.625Z,9.00
2023-02-17T14:21:40.393Z,9.00
2023-02-17T14:25:47.143Z,9.00
2023-02-17T14:29:51.445Z,9.00
2023-02-17T14:35:04.008Z,9.00
2023-02-17T14:39:10.393Z,9.00
2023-02-17T14:43:13.832Z,9.10
2023-02-17T14:47:19.518Z,9.10
2023-02-17T14:51:24.896Z,9.00
2023-02-17T14:55:35.848Z,9.00
2023-02-17T14:59:39.451Z,9.00
2023-02-17T15:03:43.139Z,8.90
2023-02-17T15:07:49.780Z,8.90
2023-02-17T15:11:54.799Z,8.90
2023-02-17T15:15:58.282Z,8.90
2023-02-17T15:20:10.247Z,8.80
2023-02-17T15:24:40.011Z,8.80
2023-02-17T15:28:44.962Z,8.80
2023-02-17T15:33:14.418Z,8.80
2023-02-17T15:37:42.695Z,8.70
2023-02-17T15:41:47.841Z,8.60
2023-02-17T15:45:52.659Z,8.60
2023-02-17T15:49:56.266Z,8.50
2023-02-17T15:54:02.691Z,8.50
2023-02-17T15:58:07.897Z,8.50
2023-02-17T16:02:21.477Z,8.40
2023-02-17T16:06:25.552Z,8.30
2023-02-17T16:10:30.225Z,8.30
2023-02-17T16:14:40.684Z,8.20
2023-02-17T16:18:45.913Z,8.10
2023-02-17T16:22:49.961Z,8.10
2023-02-17T16:26:53.678Z,8.00
2023-02-17T16:30:58.021Z,8.00
2023-02-17T16:35:02.935Z,8.00
2023-02-17T16:39:28.379Z,7.90
2023-02-17T16:43:31.999Z,7.90
2023-02-17T16:47:36.466Z,7.90
2023-02-17T16:51:41.397Z,8.00
2023-02-17T16:55:45.824Z,8.00
2023-02-17T17:00:09.602Z,8.00
2023-02-17T17:04:13.075Z,8.00
2023-02-17T17:08:20.586Z,8.00
2023-02-17T17:12:50.853Z,8.00
2023-02-17T17:17:02.356Z,8.10
2023-02-17T17:21:06.120Z,8.10
2023-02-17T17:25:38.606Z,8.10
2023-02-17T17:29:42.103Z,8.10
2023-02-17T17:33:45.625Z,8.10
2023-02-17T17:37:49.298Z,8.10
2023-02-17T17:41:54.215Z,8.10
2023-02-17T17:46:48.114Z,8.10
2023-02-17T17:51:44.253Z,8.00
2023-02-17T17:55:48.078Z,8.10
2023-02-17T17:59:53.044Z,8.10
2023-02-17T18:04:21.321Z,8.10
2023-02-17T18:08:25.146Z,8.10
2023-02-17T18:12:28.754Z,8.10
2023-02-17T18:16:35.362Z,8.10
2023-02-17T18:21:39.702Z,8.10
2023-02-17T18:26:57.620Z,8.10
2023-02-17T18:31:01.324Z,8.10
2023-02-17T18:35:34.457Z,8.10
2023-02-17T18:39:40.396Z,8.10
2023-02-17T18:43:43.894Z,8.20
2023-02-17T18:47:47.620Z,8.10
2023-02-17T18:52:17.761Z,8.20
2023-02-17T18:56:34.444Z,8.20
2023-02-17T19:00:37.867Z,8.10
2023-02-17T19:04:43.412Z,8.20
2023-02-17T19:08:49.221Z,8.10
2023-02-17T19:12:52.657Z,8.10
2023-02-17T19:17:22.243Z,8.20
2023-02-17T19:21:26.244Z,8.10
2023-02-17T19:25:31.231Z,8.20
2023-02-17T19:29:57.758Z,8.30
2023-02-17T19:34:01.206Z,8.30
2023-02-17T19:38:06.779Z,8.30
2023-02-17T19:42:11.630Z,8.40
2023-02-17T19:46:18.320Z,8.50
2023-02-17T19:50:47.166Z,8.50
2023-02-17T19:54:58.364Z,8.50
2023-02-17T19:59:03.609Z,8.60
2023-02-17T20:03:07.102Z,8.60
2023-02-17T20:07:11.585Z,8.60
2023-02-17T20:11:16.658Z,8.70
2023-02-17T20:15:48.893Z,8.70
2023-02-17T20:19:53.176Z,8.70
2023-02-17T20:23:57.570Z,8.70
2023-02-17T20:28:01.025Z,8.70
2023-02-17T20:32:30.933Z,8.70
2023-02-17T20:36:34.532Z,8.70
2023-02-17T20:41:27.776Z,8.70
2023-02-17T20:45:31.325Z,8.70
2023-02-17T20:49:38.369Z,8.70
2023-02-17T20:53:41.897Z,8.80
2023-02-17T20:57:46.078Z,8.80
2023-02-17T21:01:56.915Z,8.80
2023-02-17T21:06:03.300Z,8.90
2023-02-17T21:10:16.609Z,8.90
2023-02-17T21:14:20.175Z,8.90
2023-02-17T21:18:54.358Z,8.90
2023-02-17T21:23:25.732Z,8.90
2023-02-17T21:27:29.169Z,8.90
2023-02-17T21:31:33.117Z,8.90
2023-02-17T21:35:36.644Z,8.90
2023-02-17T21:39:41.563Z,8.90
2023-02-17T21:44:05.376Z,8.90
2023-02-17T21:48:08.983Z,8.90
2023-02-17T21:52:12.544Z,8.90
2023-02-17T21:57:05.817Z,8.90
2023-02-17T22:01:10.722Z,8.90
2023-02-17T22:05:14.076Z,8.90
2023-02-17T22:09:22.489Z,9.00
2023-02-17T22:13:26.215Z,8.90
2023-02-17T22:17:31.056Z,9.00
2023-02-17T22:21:59.505Z,9.00
2023-02-17T22:26:07.281Z,9.00
2023-02-17T22:30:11.897Z,8.90
2023-02-17T22:34:16.681Z,8.90
2023-02-17T22:38:20.076Z,8.90
2023-02-17T22:42:24.352Z,8.90
2023-02-17T22:46:27.768Z,8.80
2023-02-17T22:50:41.021Z,8.80
2023-02-17T22:54:44.580Z,8.80
2023-02-17T22:58:47.957Z,8.80
2023-02-17T23:02:52.395Z,8.80
2023-02-17T23:06:57.635Z,8.80
2023-02-17T23:11:04.755Z,8.80
2023-02-17T23:15:13.075Z,8.70
2023-02-17T23:19:18.844Z,8.70
2023-02-17T23:23:23.873Z,8.70
2023-02-17T23:27:27.350Z,8.70
2023-02-17T23:38:27.797Z,8.70
2023-02-17T23:42:38.633Z,8.70
2023-02-17T23:46:43.656Z,8.70
2023-02-17T23:50:47.393Z,8.70
2023-02-17T23:54:52.291Z,8.70
2023-02-17T23:58:57.164Z,8.70
